Time;durP1;ratioP1;P1;durP2;ratioP2;P2;SDS_P1;SDS_P2;PMS_P1;PMS_P2;Temp;Humidity;BMP_temperature;BMP_pressure;BME280_temperature;BME280_humidity;BME280_pressure;Samples;Min_cycle;Max_cycle;Signal;HPM_P1;HPM_P2
2022/01/09 00:02:25;;;;;;;52.78;5.85;;;;;;;6.08;100.00;99054.47;5036402;28;20123;-78
2022/01/09 00:04:50;;;;;;;50.47;7.25;;;;;;;6.13;100.00;99051.03;5034706;28;20124;-78
2022/01/09 00:07:15;;;;;;;45.75;6.40;;;;;;;6.13;100.00;99062.38;5035236;28;20465;-76
2022/01/09 00:09:44;;;;;;;41.60;6.00;;;;;;;6.15;100.00;99064.97;5025011;28;20453;-77
2022/01/09 00:12:09;;;;;;;35.28;6.40;;;;;;;6.18;100.00;99070.22;5031265;28;20032;-77
2022/01/09 00:14:34;;;;;;;41.42;5.22;;;;;;;6.18;100.00;99075.44;5027142;28;20037;-78
2022/01/09 00:17:00;;;;;;;35.10;5.35;;;;;;;6.19;100.00;99077.19;5029565;28;20030;-77
2022/01/09 00:19:26;;;;;;;33.75;4.75;;;;;;;6.18;100.00;99081.53;5037212;28;20544;-76
2022/01/09 00:21:51;;;;;;;40.88;5.55;;;;;;;6.19;100.00;99098.09;5027916;28;20037;-76
2022/01/09 00:24:17;;;;;;;31.15;5.10;;;;;;;6.19;100.00;99095.47;5033944;28;20125;-76
2022/01/09 00:26:42;;;;;;;32.75;5.32;;;;;;;6.21;100.00;99097.22;5023345;28;20026;-75
2022/01/09 00:29:09;;;;;;;36.45;4.78;;;;;;;6.24;100.00;99110.28;5036358;28;20025;-77
2022/01/09 00:31:35;;;;;;;32.47;5.00;;;;;;;6.26;100.00;99114.66;5030964;28;20473;-76
2022/01/09 00:34:00;;;;;;;46.58;5.15;;;;;;;6.24;100.00;99122.50;5033626;28;20036;-77
2022/01/09 00:36:26;;;;;;;36.50;5.22;;;;;;;6.26;100.00;99125.97;5033347;28;20025;-75
2022/01/09 00:38:52;;;;;;;39.22;5.85;;;;;;;6.24;100.00;99132.94;5027577;28;20057;-77
2022/01/09 00:41:17;;;;;;;35.63;5.65;;;;;;;6.30;100.00;99125.13;5018858;28;20053;-77
2022/01/09 00:43:43;;;;;;;37.40;5.20;;;;;;;6.28;100.00;99132.09;5031117;28;20415;-78
2022/01/09 00:46:09;;;;;;;38.85;5.15;;;;;;;6.32;100.00;99135.56;5033580;28;20051;-77
2022/01/09 00:48:34;;;;;;;26.02;4.75;;;;;;;6.28;100.00;99147.78;5028672;28;20029;-78
2022/01/09 00:51:00;;;;;;;32.70;5.25;;;;;;;6.27;100.00;99153.84;5026810;28;20033;-77
2022/01/09 00:53:25;;;;;;;46.63;5.88;;;;;;;6.26;100.00;99152.09;5023105;28;20041;-76
2022/01/09 00:55:51;;;;;;;42.33;5.90;;;;;;;6.26;100.00;99157.31;5017331;28;20494;-77
2022/01/09 00:58:16;;;;;;;29.77;4.40;;;;;;;6.26;100.00;99157.31;5022000;28;20498;-77
2022/01/09 01:00:41;;;;;;;24.90;4.70;;;;;;;6.24;100.00;99161.69;5032013;28;20025;-75
2022/01/09 01:03:07;;;;;;;27.15;5.13;;;;;;;6.25;100.00;99166.00;5025178;28;20519;-77
2022/01/09 01:05:32;;;;;;;36.28;5.13;;;;;;;6.28;100.00;99181.72;5030979;28;20052;-77
2022/01/09 01:07:58;;;;;;;32.10;5.18;;;;;;;6.30;100.00;99185.22;5021578;28;20084;-76
2022/01/09 01:10:23;;;;;;;38.45;4.90;;;;;;;6.34;100.00;99188.72;5027327;28;20041;-76
2022/01/09 01:12:49;;;;;;;27.92;5.68;;;;;;;6.34;100.00;99184.38;5025708;28;20052;-76
2022/01/09 01:15:14;;;;;;;42.47;5.90;;;;;;;6.33;100.00;99198.28;5027343;28;20033;-78
2022/01/09 01:17:40;;;;;;;42.67;5.10;;;;;;;6.31;100.00;99200.03;5031827;28;20479;-77
2022/01/09 01:20:07;;;;;;;36.72;5.78;;;;;;;6.29;100.00;99204.34;5020795;28;20486;-77
2022/01/09 01:22:33;;;;;;;30.25;4.78;;;;;;;6.22;100.00;99224.31;5029148;28;20092;-76
2022/01/09 01:25:00;;;;;;;35.00;4.50;;;;;;;6.25;100.00;99218.25;5022835;28;20029;-77
2022/01/09 01:27:25;;;;;;;31.95;4.13;;;;;;;6.27;100.00;99215.66;5034678;28;20163;-77
2022/01/09 01:29:50;;;;;;;32.10;4.53;;;;;;;6.26;100.00;99232.19;5031687;28;20053;-77
2022/01/09 01:32:16;;;;;;;48.25;6.65;;;;;;;6.23;100.00;99231.31;5026493;28;20397;-77
2022/01/09 01:34:41;;;;;;;30.95;4.32;;;;;;;6.23;100.00;99230.44;5027929;28;20437;-77
2022/01/09 01:37:06;;;;;;;24.38;3.83;;;;;;;6.26;100.00;99253.09;5027730;28;20041;-77
2022/01/09 01:39:32;;;;;;;32.92;5.07;;;;;;;6.27;100.00;99250.50;5021037;28;20026;-77
2022/01/09 01:41:57;;;;;;;29.30;4.22;;;;;;;6.28;100.00;99254.88;5019430;28;20034;-76
2022/01/09 01:44:23;;;;;;;35.30;4.82;;;;;;;6.27;100.00;99260.94;5032793;28;20056;-76
2022/01/09 01:46:48;;;;;;;29.95;4.35;;;;;;;6.24;100.00;99268.75;5034568;28;20093;-77
2022/01/09 01:49:13;;;;;;;30.02;4.07;;;;;;;6.24;100.00;99276.59;5032087;28;20021;-77
2022/01/09 01:51:43;;;;;;;28.42;3.28;;;;;;;6.28;100.00;99281.00;5029289;28;20524;-78
2022/01/09 01:54:10;;;;;;;19.55;3.45;;;;;;;6.28;100.00;99270.53;5021179;28;20141;-77
2022/01/09 01:56:36;;;;;;;26.27;4.00;;;;;;;6.27;100.00;99287.06;5021486;28;20374;-76
2022/01/09 01:59:02;;;;;;;23.33;3.50;;;;;;;6.28;100.00;99291.44;5032021;28;20009;-77
2022/01/09 02:01:28;;;;;;;39.45;4.68;;;;;;;6.27;100.00;99294.00;5028497;28;20079;-77
2022/01/09 02:03:53;;;;;;;25.15;4.35;;;;;;;6.25;100.00;99309.66;5021673;28;20507;-76
2022/01/09 02:06:19;;;;;;;33.30;4.60;;;;;;;6.27;100.00;99304.47;5017663;28;20113;-76
2022/01/09 02:08:45;;;;;;;27.67;3.67;;;;;;;6.26;100.00;99314.03;5021298;28;20339;-77
2022/01/09 02:11:11;;;;;;;23.55;4.47;;;;;;;6.21;100.00;99315.72;5024220;28;20034;-77
2022/01/09 02:13:40;;;;;;;20.00;3.28;;;;;;;6.21;100.00;99324.47;5027962;28;20037;-76
2022/01/09 02:16:06;;;;;;;32.90;4.75;;;;;;;6.22;100.00;99327.94;5020238;28;20029;-77
2022/01/09 02:18:31;;;;;;;26.33;3.88;;;;;;;6.20;100.00;99327.03;5033050;28;20029;-77
2022/01/09 02:20:57;;;;;;;25.38;3.33;;;;;;;6.20;100.00;99332.25;5022000;28;20485;-76
2022/01/09 02:23:22;;;;;;;21.90;3.50;;;;;;;6.16;100.00;99335.69;5024669;28;20026;-77
2022/01/09 02:25:48;;;;;;;20.33;3.50;;;;;;;6.11;100.00;99329.56;5022672;28;20120;-76
2022/01/09 02:28:15;;;;;;;29.48;3.08;;;;;;;6.05;100.00;99352.16;5016070;28;20057;-77
2022/01/09 02:30:42;;;;;;;22.80;3.13;;;;;;;6.03;100.00;99348.63;5025518;28;20072;-76
2022/01/09 02:33:09;;;;;;;19.65;3.40;;;;;;;6.07;99.97;99353.03;5026281;28;20022;-76
2022/01/09 02:35:35;;;;;;;27.60;4.18;;;;;;;6.05;100.00;99352.16;5028181;28;20030;-76
2022/01/09 02:38:03;;;;;;;21.20;2.65;;;;;;;6.03;100.00;99361.69;5026698;28;20556;-76
2022/01/09 02:40:29;;;;;;;22.35;3.10;;;;;;;6.02;100.00;99373.00;5018180;28;20048;-76
2022/01/09 02:42:54;;;;;;;19.17;3.05;;;;;;;5.98;99.82;99371.22;5024601;28;20107;-75
2022/01/09 02:45:23;;;;;;;21.10;3.08;;;;;;;6.02;98.84;99380.84;5027642;28;20120;-76
2022/01/09 02:47:50;;;;;;;18.33;2.80;;;;;;;6.04;98.85;99378.25;5020581;28;20026;-76
2022/01/09 02:52:57;;;;;;;25.90;3.33;;;;;;;5.96;100.00;99396.41;5022822;28;20090;-77
2022/01/09 02:55:24;;;;;;;24.90;3.63;;;;;;;5.97;100.00;99400.78;5027538;28;20113;-76
2022/01/09 02:57:59;;;;;;;20.13;3.40;;;;;;;5.96;100.00;99414.66;5021617;28;20036;-76
2022/01/09 03:00:28;;;;;;;28.40;3.75;;;;;;;5.97;100.00;99431.19;5029929;28;20030;-76
2022/01/09 03:02:54;;;;;;;27.98;3.95;;;;;;;5.97;100.00;99426.88;5022084;28;20385;-77
2022/01/09 03:05:20;;;;;;;24.02;3.22;;;;;;;5.96;100.00;99429.47;5026522;28;20354;-77
2022/01/09 03:07:46;;;;;;;24.88;3.03;;;;;;;5.93;100.00;99448.59;5026597;28;20038;-78
2022/01/09 03:10:13;;;;;;;21.85;3.25;;;;;;;5.93;100.00;99443.38;5023951;28;20041;-76
2022/01/09 03:12:39;;;;;;;14.38;3.17;;;;;;;5.91;100.00;99452.88;5026231;28;20128;-77
2022/01/09 03:15:05;;;;;;;21.23;2.97;;;;;;;5.84;100.00;99456.28;5024845;28;20029;-77
2022/01/09 03:17:31;;;;;;;24.02;3.80;;;;;;;5.79;100.00;99460.56;5017248;28;20034;-76
2022/01/09 03:19:56;;;;;;;20.35;3.25;;;;;;;5.77;100.00;99464.91;5024933;28;20036;-77
2022/01/09 03:22:22;;;;;;;20.48;3.88;;;;;;;5.77;99.63;99467.50;5023019;28;20390;-76
2022/01/09 03:24:49;;;;;;;18.25;2.80;;;;;;;5.78;99.53;99477.06;5025946;28;20038;-75
2022/01/09 03:27:15;;;;;;;20.38;3.00;;;;;;;5.81;97.67;99477.13;5031758;28;20087;-77
2022/01/09 03:29:41;;;;;;;21.15;3.03;;;;;;;5.79;98.39;99478.84;5033572;28;20034;-76
2022/01/09 03:32:07;;;;;;;17.85;2.75;;;;;;;5.78;98.42;99482.28;5028092;28;20095;-76
2022/01/09 03:34:33;;;;;;;22.10;3.47;;;;;;;5.77;98.38;99491.00;5024927;28;20033;-77
2022/01/09 03:36:58;;;;;;;10.32;2.20;;;;;;;5.74;97.88;99503.13;5034367;28;20041;-76
2022/01/09 03:39:23;;;;;;;24.33;3.22;;;;;;;5.71;97.59;99495.28;5029343;28;20486;-76
2022/01/09 03:41:49;;;;;;;18.73;2.65;;;;;;;5.72;96.75;99494.44;5028473;28;20112;-76
2022/01/09 03:44:14;;;;;;;19.15;3.10;;;;;;;5.73;97.54;99496.16;5024899;28;20111;-77
2022/01/09 03:46:40;;;;;;;19.88;2.90;;;;;;;5.72;98.12;99507.47;5030328;28;20032;-76
2022/01/09 03:49:05;;;;;;;20.98;3.38;;;;;;;5.73;98.63;99504.00;5034781;28;20028;-76
2022/01/09 03:51:36;;;;;;;25.88;2.78;;;;;;;5.72;98.54;99520.53;5051082;28;20025;-76
2022/01/09 03:54:03;;;;;;;16.75;3.25;;;;;;;5.67;99.63;99516.97;5033141;28;20041;-77
2022/01/09 03:56:28;;;;;;;20.10;3.03;;;;;;;5.69;98.97;99510.03;5028429;28;20040;-76
2022/01/09 03:58:53;;;;;;;23.02;2.92;;;;;;;5.70;98.96;99516.13;5028142;28;20029;-76
2022/01/09 04:01:19;;;;;;;18.67;2.47;;;;;;;5.65;99.33;99518.66;5030157;28;20080;-76
2022/01/09 04:03:44;;;;;;;17.55;2.33;;;;;;;5.64;99.22;99529.94;5021857;28;20034;-77
2022/01/09 04:06:10;;;;;;;13.93;2.53;;;;;;;5.62;98.69;99539.50;5026135;28;20520;-77
2022/01/09 04:08:35;;;;;;;21.05;2.75;;;;;;;5.60;98.55;99532.50;5018411;28;20025;-76
2022/01/09 04:11:03;;;;;;;12.55;1.95;;;;;;;5.59;98.93;99529.03;5028605;28;20037;-76
2022/01/09 04:13:28;;;;;;;21.85;2.83;;;;;;;5.56;99.13;99535.06;5025173;28;20489;-76
2022/01/09 04:15:54;;;;;;;23.60;3.60;;;;;;;5.52;99.20;99543.69;5024686;28;20063;-77
2022/01/09 04:18:22;;;;;;;21.33;2.45;;;;;;;5.50;100.00;99549.75;5005076;28;20038;-77
2022/01/09 04:20:48;;;;;;;14.20;2.28;;;;;;;5.51;98.44;99546.28;5032802;28;20500;-76
2022/01/09 04:23:15;;;;;;;14.73;3.03;;;;;;;5.54;98.61;99551.56;5030369;28;20045;-75
2022/01/09 04:25:41;;;;;;;11.63;3.10;;;;;;;5.57;98.02;99556.81;5024141;28;20039;-76
2022/01/09 04:28:07;;;;;;;20.35;3.22;;;;;;;5.56;98.49;99562.88;5025120;28;20574;-76
2022/01/09 04:30:32;;;;;;;19.40;2.45;;;;;;;5.52;98.02;99569.78;5029182;28;20022;-76
2022/01/09 04:32:58;;;;;;;16.60;2.60;;;;;;;5.52;96.99;99574.13;5031778;28;20033;-77
2022/01/09 04:35:23;;;;;;;16.63;2.30;;;;;;;5.49;96.06;99576.69;5023965;28;20029;-76
2022/01/09 04:37:49;;;;;;;18.83;2.72;;;;;;;5.47;96.27;99574.06;5028354;28;20050;-77
2022/01/09 04:40:17;;;;;;;16.80;2.15;;;;;;;5.45;96.93;99585.31;5021369;28;20041;-76
2022/01/09 04:42:46;;;;;;;15.80;3.97;;;;;;;5.41;96.37;99581.75;5032160;28;20060;-75
2022/01/09 04:45:14;;;;;;;11.13;2.90;;;;;;;5.37;96.30;99588.69;5023078;28;20040;-77
2022/01/09 04:47:43;;;;;;;16.73;4.10;;;;;;;5.35;97.83;99600.81;5030341;28;20033;-77
2022/01/09 04:50:13;;;;;;;21.02;2.75;;;;;;;5.29;97.41;99608.53;5030124;28;20029;-77
2022/01/09 04:52:39;;;;;;;18.52;2.85;;;;;;;5.28;97.89;99612.00;5029893;28;20087;-76
2022/01/09 04:55:05;;;;;;;15.43;2.78;;;;;;;5.32;97.96;99610.31;5028426;28;20045;-74
2022/01/09 04:57:31;;;;;;;15.82;3.50;;;;;;;5.33;98.13;99639.03;5032563;28;20112;-76
2022/01/09 04:59:56;;;;;;;24.55;3.03;;;;;;;5.36;98.58;99626.03;5027417;28;20420;-76
2022/01/09 05:02:21;;;;;;;18.77;2.63;;;;;;;5.41;97.66;99633.94;5025233;28;20021;-76
2022/01/09 05:04:47;;;;;;;14.30;4.10;;;;;;;5.45;96.75;99635.75;5027477;28;20096;-76
2022/01/09 05:07:12;;;;;;;21.38;2.63;;;;;;;5.47;97.67;99633.19;5023521;28;20061;-76
2022/01/09 05:09:37;;;;;;;10.57;2.03;;;;;;;5.47;98.47;99643.63;5031320;28;20068;-76
2022/01/09 05:12:03;;;;;;;12.13;2.65;;;;;;;5.46;97.83;99640.13;5021411;28;20049;-76
2022/01/09 05:14:29;;;;;;;20.50;2.33;;;;;;;5.48;98.19;99645.38;5027378;28;20060;-77
2022/01/09 05:16:55;;;;;;;15.18;2.53;;;;;;;5.46;97.17;99654.91;5028322;28;20056;-76
2022/01/09 05:19:28;;;;;;;14.00;2.58;;;;;;;5.49;96.89;99654.94;5033638;28;20386;-77
2022/01/09 05:21:53;;;;;;;9.07;2.30;;;;;;;5.51;96.34;99654.13;5036185;28;20112;-76
2022/01/09 05:24:19;;;;;;;15.43;2.55;;;;;;;5.51;96.68;99661.09;5029578;28;20084;-76
2022/01/09 05:26:44;;;;;;;18.92;3.30;;;;;;;5.49;97.85;99673.22;5020968;28;20025;-77
2022/01/09 05:29:11;;;;;;;19.20;2.53;;;;;;;5.52;97.24;99675.88;5028682;28;20045;-77
2022/01/09 05:31:36;;;;;;;18.65;3.03;;;;;;;5.46;100.00;99686.22;5027965;28;20029;-77
2022/01/09 05:34:02;;;;;;;17.77;2.92;;;;;;;5.27;100.00;99691.06;5023614;28;20463;-75
2022/01/09 05:36:27;;;;;;;17.40;3.00;;;;;;;5.13;100.00;99701.25;5032061;28;20025;-76
2022/01/09 05:38:52;;;;;;;12.65;2.53;;;;;;;5.04;100.00;99711.47;5026334;28;20052;-78
2022/01/09 05:41:18;;;;;;;19.58;3.78;;;;;;;5.00;100.00;99715.75;5029234;28;20052;-77
2022/01/09 05:43:43;;;;;;;18.17;2.25;;;;;;;4.95;100.00;99712.19;5030699;28;20525;-76
2022/01/09 05:46:08;;;;;;;17.35;2.33;;;;;;;4.98;100.00;99712.25;5031910;28;20029;-77
2022/01/09 05:48:34;;;;;;;23.05;3.50;;;;;;;5.01;100.00;99712.28;5027854;28;20033;-76
2022/01/09 05:50:59;;;;;;;16.65;2.65;;;;;;;5.05;100.00;99710.63;5025157;28;20030;-77
2022/01/09 05:53:24;;;;;;;11.52;2.47;;;;;;;5.09;100.00;99709.84;5022710;28;20021;-77
2022/01/09 05:55:50;;;;;;;14.15;2.45;;;;;;;5.10;100.00;99715.94;5024465;28;20030;-75
2022/01/09 05:58:15;;;;;;;15.82;2.20;;;;;;;5.08;100.00;99713.31;5030319;28;20029;-76
2022/01/09 06:00:41;;;;;;;13.95;2.58;;;;;;;4.95;100.00;99725.22;5031723;28;20096;-76
2022/01/09 06:03:06;;;;;;;18.55;2.58;;;;;;;4.87;100.00;99729.34;5019266;28;20030;-76
2022/01/09 06:05:32;;;;;;;21.35;3.30;;;;;;;4.84;100.00;99725.00;5030519;28;20052;-77
2022/01/09 06:07:57;;;;;;;16.63;2.88;;;;;;;4.86;100.00;99725.03;5025249;28;20095;-76
2022/01/09 06:10:22;;;;;;;14.07;2.92;;;;;;;4.84;100.00;99731.91;5028893;28;20030;-75
2022/01/09 06:12:48;;;;;;;15.73;2.50;;;;;;;4.85;100.00;99739.75;5031073;28;20066;-75
2022/01/09 06:15:13;;;;;;;15.25;2.20;;;;;;;4.86;100.00;99740.66;5016859;28;20037;-75
2022/01/09 06:17:41;;;;;;;13.02;2.70;;;;;;;4.88;100.00;99757.19;5033340;28;20400;-76
2022/01/09 06:20:09;;;;;;;13.80;2.38;;;;;;;4.87;100.00;99752.81;5024487;28;20440;-75
2022/01/09 06:22:34;;;;;;;20.20;2.35;;;;;;;4.87;100.00;99755.44;5026150;28;20061;-75
2022/01/09 06:25:00;;;;;;;19.58;3.92;;;;;;;4.91;100.00;99757.28;5027615;28;20033;-74
2022/01/09 06:27:26;;;;;;;8.05;2.00;;;;;;;4.99;100.00;99766.16;5023816;28;20051;-77
2022/01/09 06:29:51;;;;;;;14.15;2.08;;;;;;;5.05;100.00;99757.56;5026272;28;20111;-78
2022/01/09 06:32:17;;;;;;;12.23;2.75;;;;;;;5.07;100.00;99764.59;5019025;28;20025;-77
2022/01/09 06:34:42;;;;;;;14.70;2.63;;;;;;;5.13;99.28;99757.72;5028210;28;20351;-77
2022/01/09 06:37:08;;;;;;;16.08;2.17;;;;;;;5.15;99.73;99777.75;5024268;28;20025;-74
2022/01/09 06:39:34;;;;;;;17.13;3.58;;;;;;;5.16;100.00;99799.53;5025113;28;20096;-75
2022/01/09 06:41:59;;;;;;;14.35;2.25;;;;;;;5.03;100.00;99800.97;5020638;28;20037;-76
2022/01/09 06:44:25;;;;;;;11.05;2.08;;;;;;;4.94;100.00;99799.06;5022104;28;20123;-76
2022/01/09 06:46:51;;;;;;;17.45;2.63;;;;;;;4.83;100.00;99800.50;5025916;28;20106;-76
2022/01/09 06:49:16;;;;;;;12.32;2.30;;;;;;;4.78;100.00;99802.16;5019227;28;20486;-78
2022/01/09 06:51:42;;;;;;;14.68;2.72;;;;;;;4.68;100.00;99799.34;5027532;28;20031;-76
2022/01/09 06:54:07;;;;;;;12.48;2.88;;;;;;;4.66;100.00;99803.63;5025179;28;20030;-78
2022/01/09 06:56:34;;;;;;;11.40;2.70;;;;;;;4.68;100.00;99811.47;5017634;28;20034;-76
2022/01/09 06:58:59;;;;;;;20.30;2.40;;;;;;;4.71;100.00;99815.03;5031558;28;20043;-76
2022/01/09 07:01:24;;;;;;;15.10;2.45;;;;;;;4.80;100.00;99809.16;5018481;28;20100;-78
2022/01/09 07:03:49;;;;;;;19.75;2.55;;;;;;;4.81;100.00;99810.03;5022383;28;20414;-76
2022/01/09 07:06:15;;;;;;;17.92;2.63;;;;;;;4.82;100.00;99819.63;5019954;28;20022;-76
2022/01/09 07:08:40;;;;;;;16.23;2.70;;;;;;;4.84;100.00;99820.53;5026426;28;20041;-77
2022/01/09 07:11:06;;;;;;;12.02;2.50;;;;;;;4.87;100.00;99818.88;5020646;28;20064;-77
2022/01/09 07:13:32;;;;;;;15.45;2.58;;;;;;;4.90;100.00;99818.06;5028319;28;20048;-76
2022/01/09 07:15:58;;;;;;;22.80;2.80;;;;;;;4.91;100.00;99822.44;5020648;28;20034;-75
2022/01/09 07:18:23;;;;;;;17.00;2.40;;;;;;;4.92;100.00;99832.00;5023606;28;20041;-75
2022/01/09 07:20:49;;;;;;;12.23;2.13;;;;;;;4.90;99.77;99834.59;5033153;28;20033;-75
2022/01/09 07:23:14;;;;;;;21.90;3.50;;;;;;;4.94;99.55;99834.66;5023730;28;20176;-76
2022/01/09 07:25:40;;;;;;;15.57;2.88;;;;;;;4.99;98.57;99849.56;5017312;28;20139;-76
2022/01/09 07:28:05;;;;;;;12.40;2.95;;;;;;;5.02;99.58;99847.03;5021491;28;20109;-76
2022/01/09 07:30:31;;;;;;;9.93;2.03;;;;;;;4.99;100.00;99848.69;5019801;28;20057;-76
2022/01/09 07:32:59;;;;;;;12.98;2.17;;;;;;;4.97;100.00;99856.47;5030690;28;20083;-76
2022/01/09 07:35:25;;;;;;;12.23;2.90;;;;;;;4.96;100.00;99849.47;5023746;28;20494;-74
2022/01/09 07:37:51;;;;;;;15.13;1.77;;;;;;;4.95;100.00;99857.28;5024118;28;20132;-75
2022/01/09 07:40:16;;;;;;;15.95;2.78;;;;;;;4.99;100.00;99870.44;5016513;28;20095;-75
2022/01/09 07:42:42;;;;;;;12.63;2.33;;;;;;;5.03;100.00;99873.97;5019067;28;20108;-75
2022/01/09 07:45:08;;;;;;;18.70;2.92;;;;;;;5.07;100.00;99874.09;5030364;28;20018;-76
2022/01/09 07:47:37;;;;;;;18.13;2.72;;;;;;;5.11;100.00;99868.94;5023701;28;20026;-74
2022/01/09 07:50:04;;;;;;;16.98;2.50;;;;;;;5.14;100.00;99872.50;5022659;28;20030;-75
2022/01/09 07:52:29;;;;;;;11.90;1.80;;;;;;;5.20;100.00;99874.38;5023625;28;20080;-74
2022/01/09 07:54:55;;;;;;;11.43;2.25;;;;;;;5.20;100.00;99876.97;5025686;28;20041;-75
2022/01/09 07:57:21;;;;;;;13.13;2.53;;;;;;;5.22;100.00;99889.22;5026704;28;20038;-74
2022/01/09 07:59:46;;;;;;;11.55;2.30;;;;;;;5.20;100.00;99895.22;5019884;28;20478;-75
2022/01/09 08:02:12;;;;;;;17.75;2.53;;;;;;;5.05;100.00;99917.50;5023817;28;20022;-74
2022/01/09 08:04:37;;;;;;;13.10;2.28;;;;;;;4.91;100.00;99903.25;5029538;28;20041;-72
2022/01/09 08:07:03;;;;;;;11.05;2.60;;;;;;;4.71;100.00;99915.78;5018174;28;20033;-73
2022/01/09 08:09:28;;;;;;;11.07;2.47;;;;;;;4.50;100.00;99922.22;5012142;28;20022;-72
2022/01/09 08:11:53;;;;;;;10.65;2.35;;;;;;;4.37;100.00;99926.22;5024030;28;20076;-73
2022/01/09 08:14:19;;;;;;;18.65;2.70;;;;;;;4.32;100.00;99930.41;5026954;28;20033;-73
2022/01/09 08:16:44;;;;;;;16.77;3.55;;;;;;;4.30;100.00;99924.28;5024543;28;20129;-73
2022/01/09 08:19:09;;;;;;;18.77;3.38;;;;;;;4.34;100.00;99922.63;5023543;28;20029;-74
2022/01/09 08:21:35;;;;;;;16.30;2.92;;;;;;;4.39;100.00;99927.16;5023034;28;20120;-72
2022/01/09 08:24:00;;;;;;;11.77;2.90;;;;;;;4.42;100.00;99933.25;5032791;28;20030;-73
2022/01/09 08:26:25;;;;;;;8.52;2.60;;;;;;;4.51;100.00;99943.94;5017417;28;20030;-74
2022/01/09 08:28:51;;;;;;;18.25;3.50;;;;;;;4.64;100.00;99946.03;5025675;28;20032;-73
2022/01/09 08:31:18;;;;;;;18.90;3.28;;;;;;;4.73;100.00;99955.78;5020530;28;20021;-73
2022/01/09 08:33:44;;;;;;;14.82;2.47;;;;;;;4.80;100.00;99954.22;5032873;28;20060;-72
2022/01/09 08:36:09;;;;;;;16.15;3.17;;;;;;;4.76;100.00;99945.47;5030031;28;20488;-73
2022/01/09 08:38:35;;;;;;;14.18;3.08;;;;;;;4.67;100.00;99956.53;5028588;28;20049;-75
2022/01/09 08:41:01;;;;;;;14.10;2.42;;;;;;;4.60;100.00;99964.13;5022267;28;20025;-73
2022/01/09 08:43:26;;;;;;;30.13;4.03;;;;;;;4.57;100.00;99972.75;5022852;28;20042;-73
2022/01/09 08:45:51;;;;;;;14.55;2.72;;;;;;;4.54;100.00;99964.84;5021996;28;20021;-73
2022/01/09 08:48:17;;;;;;;21.95;4.25;;;;;;;4.52;100.00;99967.41;5023168;28;20497;-73
2022/01/09 08:50:43;;;;;;;24.42;3.47;;;;;;;4.54;100.00;99976.16;5030723;28;20059;-72
2022/01/09 08:53:08;;;;;;;13.40;2.25;;;;;;;4.59;100.00;99975.41;5027635;28;20091;-74
2022/01/09 08:55:33;;;;;;;21.00;3.60;;;;;;;4.62;100.00;99973.75;5030017;28;20492;-73
2022/01/09 08:57:59;;;;;;;16.98;2.40;;;;;;;4.67;100.00;99985.19;5023519;28;20037;-72
2022/01/09 09:00:26;;;;;;;16.75;3.95;;;;;;;4.75;100.00;99985.41;5022651;28;20036;-73
2022/01/09 09:02:51;;;;;;;15.35;3.80;;;;;;;4.81;100.00;99989.88;5027690;28;20021;-74
2022/01/09 09:05:17;;;;;;;24.67;3.95;;;;;;;4.86;100.00;99985.69;5029863;28;20104;-74
2022/01/09 09:07:42;;;;;;;11.70;2.53;;;;;;;4.88;100.00;99995.31;5024353;28;20041;-74
2022/01/09 09:10:09;;;;;;;11.75;2.40;;;;;;;4.92;100.00;100001.44;5027978;28;20022;-76
2022/01/09 09:12:34;;;;;;;15.85;3.22;;;;;;;4.95;100.00;99993.75;5028244;28;20029;-74
2022/01/09 09:15:03;;;;;;;19.35;2.50;;;;;;;5.02;100.00;100003.47;5037308;28;20029;-76
2022/01/09 09:17:30;;;;;;;28.95;4.25;;;;;;;5.05;100.00;100003.53;5039124;28;20124;-75
2022/01/09 09:19:56;;;;;;;15.93;3.63;;;;;;;5.06;100.00;100007.91;5035219;28;20037;-75
2022/01/09 09:22:22;;;;;;;15.75;2.67;;;;;;;5.09;100.00;100016.63;5028594;28;20029;-75
2022/01/09 09:24:47;;;;;;;25.20;3.45;;;;;;;5.09;100.00;100024.47;5023781;28;20030;-75
2022/01/09 09:27:13;;;;;;;29.48;4.13;;;;;;;5.14;100.00;100022.88;5029577;28;20036;-74
2022/01/09 09:29:38;;;;;;;14.48;2.72;;;;;;;5.19;100.00;100027.34;5029863;28;20018;-75
2022/01/09 09:32:04;;;;;;;10.00;1.67;;;;;;;5.23;100.00;100031.78;5024407;28;20045;-75
2022/01/09 09:34:30;;;;;;;14.65;2.45;;;;;;;5.24;100.00;100040.53;4997504;28;20041;-71
2022/01/09 09:36:55;;;;;;;14.38;2.15;;;;;;;5.24;100.00;100030.09;5027483;28;20430;-72
2022/01/09 09:39:20;;;;;;;12.85;2.22;;;;;;;5.29;100.00;100041.53;5033934;28;20037;-73
2022/01/09 09:41:46;;;;;;;12.68;2.95;;;;;;;5.33;100.00;100048.59;5034473;28;20061;-73
2022/01/09 09:44:12;;;;;;;20.20;3.60;;;;;;;5.39;100.00;100048.72;5022376;28;20022;-71
2022/01/09 09:46:38;;;;;;;15.48;3.50;;;;;;;5.47;100.00;100045.44;5014794;28;20428;-71
2022/01/09 09:49:04;;;;;;;17.50;2.53;;;;;;;5.52;100.00;100055.13;5032684;28;20021;-71
2022/01/09 09:51:30;;;;;;;15.23;2.15;;;;;;;5.47;100.00;100040.22;5032877;28;20037;-72
2022/01/09 09:53:59;;;;;;;13.65;2.67;;;;;;;5.43;99.94;100041.84;5030998;28;20400;-72
2022/01/09 09:56:24;;;;;;;10.98;2.20;;;;;;;5.39;99.70;100051.31;5018031;28;20021;-71
2022/01/09 09:58:51;;;;;;;11.07;1.95;;;;;;;5.43;100.00;100051.41;5033551;28;20032;-72
2022/01/09 10:01:29;;;;;;;12.20;2.40;;;;;;;5.44;100.00;100053.16;5033811;28;20024;-72
2022/01/09 10:04:02;;;;;;;19.02;3.45;;;;;;;5.45;100.00;100061.03;5034128;28;20021;-71
2022/01/09 10:06:39;;;;;;;11.13;2.25;;;;;;;5.47;99.35;100072.41;5034765;28;20033;-70
2022/01/09 10:09:07;;;;;;;15.02;2.50;;;;;;;5.39;100.00;100068.72;5027087;28;20516;-70
2022/01/09 10:11:41;;;;;;;17.52;2.42;;;;;;;5.29;100.00;100072.81;5029184;28;20052;-71
2022/01/09 10:14:28;;;;;;;12.68;2.25;;;;;;;5.28;100.00;100086.72;5032065;28;20017;-70
2022/01/09 10:17:16;;;;;;;9.93;2.15;;;;;;;5.58;100.00;100083.09;5030400;28;20033;-71
2022/01/09 10:19:42;;;;;;;12.30;2.17;;;;;;;5.74;100.00;100086.97;5032604;28;20389;-70
2022/01/09 10:22:30;;;;;;;14.73;2.00;;;;;;;5.68;100.00;100089.41;5030651;28;20088;-72
2022/01/09 10:24:57;;;;;;;15.07;2.40;;;;;;;5.90;100.00;100088.19;5029021;28;20033;-72
2022/01/09 10:27:41;;;;;;;6.13;1.52;;;;;;;6.30;98.82;100083.03;5025338;28;20056;-72
2022/01/09 10:30:07;;;;;;;15.18;2.22;;;;;;;6.53;96.90;100081.78;5029247;28;20466;-71
2022/01/09 10:32:33;;;;;;;11.60;2.40;;;;;;;6.57;97.16;100088.81;5027179;28;20032;-70
2022/01/09 10:35:09;;;;;;;14.23;2.10;;;;;;;6.36;96.40;100081.44;5033836;28;20036;-72
2022/01/09 10:37:38;;;;;;;10.73;2.22;;;;;;;6.31;96.38;100096.13;5029811;28;20042;-71
2022/01/09 10:40:08;;;;;;;14.88;1.95;;;;;;;6.17;96.69;100087.09;5033815;28;20037;-72
2022/01/09 10:42:33;;;;;;;12.77;2.60;;;;;;;6.12;97.93;100088.72;5037208;28;20033;-71
2022/01/09 10:45:22;;;;;;;10.07;2.15;;;;;;;6.06;97.78;100090.38;5013696;28;20358;-73
2022/01/09 10:47:49;;;;;;;11.05;2.50;;;;;;;5.99;98.52;100098.88;5029941;28;20484;-71
2022/01/09 10:50:31;;;;;;;14.60;2.33;;;;;;;5.95;99.38;100107.47;5026618;28;20068;-70
2022/01/09 10:53:21;;;;;;;14.70;2.88;;;;;;;5.95;99.29;100109.19;5014128;28;20049;-70
2022/01/09 10:56:15;;;;;;;15.45;2.35;;;;;;;5.90;98.92;100109.97;5012687;28;20021;-70
2022/01/09 10:58:45;;;;;;;19.98;2.40;;;;;;;5.90;98.03;100101.25;5017850;28;20355;-71
2022/01/09 11:01:14;;;;;;;11.90;2.05;;;;;;;5.98;98.33;100107.59;5027249;28;20049;-70
2022/01/09 11:03:42;;;;;;;12.45;2.58;;;;;;;6.05;99.03;100113.81;5026191;28;20037;-70
2022/01/09 11:06:09;;;;;;;22.00;3.28;;;;;;;6.04;99.20;100112.94;5032883;28;20057;-71
2022/01/09 11:08:36;;;;;;;18.08;2.53;;;;;;;6.06;99.54;100118.19;5033848;28;20116;-69
2022/01/09 11:11:07;;;;;;;17.67;2.47;;;;;;;6.02;99.06;100119.88;5024688;28;20022;-70
2022/01/09 11:13:41;;;;;;;21.15;2.97;;;;;;;5.96;100.00;100131.88;5019453;28;20060;-70
2022/01/09 11:18:51;;;;;;;16.40;2.67;;;;;;;5.64;100.00;100125.00;5020595;28;19924;-71
2022/01/09 11:21:17;;;;;;;15.13;2.65;;;;;;;5.58;100.00;100124.84;5026325;28;20038;-70
2022/01/09 11:23:50;;;;;;;14.95;2.55;;;;;;;5.58;100.00;100127.47;5013694;28;20030;-70
2022/01/09 11:26:16;;;;;;;20.80;3.87;;;;;;;5.58;100.00;100132.69;5029903;28;20095;-71
2022/01/09 11:28:44;;;;;;;20.08;2.67;;;;;;;5.62;100.00;100138.88;5031071;28;20318;-70
2022/01/09 11:31:43;;;;;;;18.00;2.70;;;;;;;5.61;100.00;100143.19;5022822;28;20041;-71